sensor_id;sensor_type;location;lat;lon;timestamp;P1;durP1;ratioP1;P2;durP2;ratioP2
2338;SDS011;1180;51.438;6.978;2023-03-21T00:00:40;11.50;;;5.50;;
2338;SDS011;1180;51.438;6.978;2023-03-21T00:03:06;6.87;;;5.00;;
2338;SDS011;1180;51.438;6.978;2023-03-21T00:05:31;12.37;;;5.00;;
2338;SDS011;1180;51.438;6.978;2023-03-21T00:07:57;7.80;;;4.50;;
2338;SDS011;1180;51.438;6.978;2023-03-21T00:10:22;9.13;;;4.83;;
2338;SDS011;1180;51.438;6.978;2023-03-21T00:12:48;8.83;;;4.40;;
2338;SDS011;1180;51.438;6.978;2023-03-21T00:15:22;8.20;;;5.17;;
2338;SDS011;1180;51.438;6.978;2023-03-21T00:17:57;8.27;;;6.00;;
2338;SDS011;1180;51.438;6.978;2023-03-21T00:20:30;9.20;;;5.20;;
2338;SDS011;1180;51.438;6.978;2023-03-21T00:22:58;6.13;;;4.00;;
2338;SDS011;1180;51.438;6.978;2023-03-21T00:25:26;7.27;;;4.60;;
2338;SDS011;1180;51.438;6.978;2023-03-21T00:27:51;10.00;;;5.60;;
2338;SDS011;1180;51.438;6.978;2023-03-21T00:30:17;10.73;;;3.63;;
2338;SDS011;1180;51.438;6.978;2023-03-21T00:32:42;7.47;;;3.77;;
2338;SDS011;1180;51.438;6.978;2023-03-21T00:35:07;13.63;;;4.30;;
2338;SDS011;1180;51.438;6.978;2023-03-21T00:37:33;8.57;;;4.30;;
2338;SDS011;1180;51.438;6.978;2023-03-21T00:39:58;5.70;;;3.30;;
2338;SDS011;1180;51.438;6.978;2023-03-21T00:42:24;7.10;;;4.20;;
2338;SDS011;1180;51.438;6.978;2023-03-21T00:44:50;8.53;;;4.77;;
2338;SDS011;1180;51.438;6.978;2023-03-21T00:47:15;8.47;;;4.27;;
2338;SDS011;1180;51.438;6.978;2023-03-21T00:49:41;7.00;;;3.97;;
2338;SDS011;1180;51.438;6.978;2023-03-21T00:52:07;11.17;;;4.93;;
2338;SDS011;1180;51.438;6.978;2023-03-21T00:54:34;5.30;;;3.73;;
2338;SDS011;1180;51.438;6.978;2023-03-21T00:57:01;17.47;;;5.10;;
2338;SDS011;1180;51.438;6.978;2023-03-21T00:59:28;8.43;;;4.00;;
2338;SDS011;1180;51.438;6.978;2023-03-21T01:01:53;9.27;;;5.70;;
2338;SDS011;1180;51.438;6.978;2023-03-21T01:04:19;14.67;;;5.13;;
2338;SDS011;1180;51.438;6.978;2023-03-21T01:06:46;10.87;;;4.77;;
2338;SDS011;1180;51.438;6.978;2023-03-21T01:09:18;11.00;;;5.23;;
2338;SDS011;1180;51.438;6.978;2023-03-21T01:11:45;9.80;;;6.17;;
2338;SDS011;1180;51.438;6.978;2023-03-21T01:14:12;8.50;;;5.63;;
2338;SDS011;1180;51.438;6.978;2023-03-21T01:16:39;11.70;;;6.10;;
2338;SDS011;1180;51.438;6.978;2023-03-21T01:19:05;11.90;;;6.23;;
2338;SDS011;1180;51.438;6.978;2023-03-21T01:21:32;8.80;;;5.83;;
2338;SDS011;1180;51.438;6.978;2023-03-21T01:23:58;16.60;;;6.53;;
2338;SDS011;1180;51.438;6.978;2023-03-21T01:26:24;11.33;;;5.83;;
2338;SDS011;1180;51.438;6.978;2023-03-21T01:28:49;11.47;;;6.93;;
2338;SDS011;1180;51.438;6.978;2023-03-21T01:31:15;11.00;;;6.60;;
2338;SDS011;1180;51.438;6.978;2023-03-21T01:33:41;10.93;;;6.50;;
2338;SDS011;1180;51.438;6.978;2023-03-21T01:36:08;12.10;;;6.43;;
2338;SDS011;1180;51.438;6.978;2023-03-21T01:38:40;11.90;;;5.80;;
2338;SDS011;1180;51.438;6.978;2023-03-21T01:41:06;12.90;;;6.57;;
2338;SDS011;1180;51.438;6.978;2023-03-21T01:43:33;9.80;;;6.00;;
2338;SDS011;1180;51.438;6.978;2023-03-21T01:48:37;14.40;;;6.87;;
2338;SDS011;1180;51.438;6.978;2023-03-21T01:51:05;16.70;;;6.60;;
2338;SDS011;1180;51.438;6.978;2023-03-21T01:53:33;16.77;;;7.00;;
2338;SDS011;1180;51.438;6.978;2023-03-21T01:56:03;7.90;;;6.00;;
2338;SDS011;1180;51.438;6.978;2023-03-21T01:58:35;10.57;;;6.90;;
2338;SDS011;1180;51.438;6.978;2023-03-21T02:01:02;11.20;;;6.47;;
2338;SDS011;1180;51.438;6.978;2023-03-21T02:03:28;11.03;;;6.00;;
2338;SDS011;1180;51.438;6.978;2023-03-21T02:06:08;10.53;;;6.80;;
2338;SDS011;1180;51.438;6.978;2023-03-21T02:08:36;10.90;;;6.30;;
2338;SDS011;1180;51.438;6.978;2023-03-21T02:11:02;11.77;;;6.17;;
2338;SDS011;1180;51.438;6.978;2023-03-21T02:13:28;8.73;;;6.17;;
2338;SDS011;1180;51.438;6.978;2023-03-21T02:15:57;11.70;;;6.57;;
2338;SDS011;1180;51.438;6.978;2023-03-21T02:18:41;10.40;;;6.80;;
2338;SDS011;1180;51.438;6.978;2023-03-21T02:27:13;13.53;;;7.20;;
2338;SDS011;1180;51.438;6.978;2023-03-21T02:35:45;13.47;;;8.17;;
2338;SDS011;1180;51.438;6.978;2023-03-21T02:41:15;11.00;;;6.83;;
2338;SDS011;1180;51.438;6.978;2023-03-21T02:43:51;15.27;;;6.87;;
2338;SDS011;1180;51.438;6.978;2023-03-21T02:46:25;15.43;;;8.30;;
2338;SDS011;1180;51.438;6.978;2023-03-21T02:49:15;13.43;;;7.60;;
2338;SDS011;1180;51.438;6.978;2023-03-21T02:51:40;11.50;;;7.40;;
2338;SDS011;1180;51.438;6.978;2023-03-21T02:54:14;12.40;;;8.30;;
2338;SDS011;1180;51.438;6.978;2023-03-21T02:56:42;12.10;;;7.50;;
2338;SDS011;1180;51.438;6.978;2023-03-21T02:59:09;12.40;;;7.60;;
2338;SDS011;1180;51.438;6.978;2023-03-21T03:01:36;16.33;;;6.93;;
2338;SDS011;1180;51.438;6.978;2023-03-21T03:04:01;11.03;;;7.47;;
2338;SDS011;1180;51.438;6.978;2023-03-21T03:06:35;14.43;;;7.70;;
2338;SDS011;1180;51.438;6.978;2023-03-21T03:11:44;10.43;;;7.40;;
2338;SDS011;1180;51.438;6.978;2023-03-21T03:14:32;13.77;;;8.00;;
2338;SDS011;1180;51.438;6.978;2023-03-21T03:23:04;12.10;;;7.03;;
2338;SDS011;1180;51.438;6.978;2023-03-21T03:25:38;16.47;;;8.20;;
2338;SDS011;1180;51.438;6.978;2023-03-21T03:28:10;10.07;;;6.63;;
2338;SDS011;1180;51.438;6.978;2023-03-21T03:30:39;10.87;;;7.30;;
2338;SDS011;1180;51.438;6.978;2023-03-21T03:33:05;12.40;;;7.80;;
2338;SDS011;1180;51.438;6.978;2023-03-21T03:35:34;10.50;;;6.80;;
2338;SDS011;1180;51.438;6.978;2023-03-21T03:38:00;20.77;;;7.50;;
2338;SDS011;1180;51.438;6.978;2023-03-21T03:40:44;10.20;;;7.40;;
2338;SDS011;1180;51.438;6.978;2023-03-21T03:43:17;11.00;;;6.53;;
2338;SDS011;1180;51.438;6.978;2023-03-21T03:45:49;15.13;;;7.43;;
2338;SDS011;1180;51.438;6.978;2023-03-21T03:48:27;10.20;;;7.53;;
2338;SDS011;1180;51.438;6.978;2023-03-21T03:50:57;13.57;;;8.10;;
2338;SDS011;1180;51.438;6.978;2023-03-21T03:55:57;12.47;;;7.40;;
2338;SDS011;1180;51.438;6.978;2023-03-21T03:58:24;17.83;;;8.40;;
2338;SDS011;1180;51.438;6.978;2023-03-21T04:00:51;14.17;;;7.40;;
2338;SDS011;1180;51.438;6.978;2023-03-21T04:03:18;14.33;;;6.60;;
2338;SDS011;1180;51.438;6.978;2023-03-21T04:05:44;12.60;;;6.87;;
2338;SDS011;1180;51.438;6.978;2023-03-21T04:08:11;10.67;;;7.00;;
2338;SDS011;1180;51.438;6.978;2023-03-21T04:10:37;14.67;;;7.77;;
2338;SDS011;1180;51.438;6.978;2023-03-21T04:13:03;12.37;;;7.43;;
2338;SDS011;1180;51.438;6.978;2023-03-21T04:15:28;12.70;;;7.27;;
2338;SDS011;1180;51.438;6.978;2023-03-21T04:17:54;13.47;;;7.00;;
2338;SDS011;1180;51.438;6.978;2023-03-21T04:20:19;12.33;;;6.30;;
2338;SDS011;1180;51.438;6.978;2023-03-21T04:22:45;11.83;;;6.80;;
2338;SDS011;1180;51.438;6.978;2023-03-21T04:25:10;13.33;;;7.97;;
2338;SDS011;1180;51.438;6.978;2023-03-21T04:27:37;10.87;;;6.60;;
2338;SDS011;1180;51.438;6.978;2023-03-21T04:30:03;11.53;;;5.90;;
2338;SDS011;1180;51.438;6.978;2023-03-21T04:32:30;13.90;;;7.33;;
2338;SDS011;1180;51.438;6.978;2023-03-21T04:34:58;9.87;;;6.60;;
2338;SDS011;1180;51.438;6.978;2023-03-21T04:37:24;11.43;;;6.70;;
2338;SDS011;1180;51.438;6.978;2023-03-21T04:39:51;7.60;;;5.40;;
2338;SDS011;1180;51.438;6.978;2023-03-21T04:42:18;11.93;;;6.57;;
2338;SDS011;1180;51.438;6.978;2023-03-21T04:44:44;9.27;;;6.83;;
2338;SDS011;1180;51.438;6.978;2023-03-21T04:47:29;12.13;;;5.50;;
2338;SDS011;1180;51.438;6.978;2023-03-21T04:49:55;11.77;;;6.33;;
2338;SDS011;1180;51.438;6.978;2023-03-21T04:52:21;10.53;;;6.10;;
2338;SDS011;1180;51.438;6.978;2023-03-21T04:54:46;12.33;;;7.00;;
2338;SDS011;1180;51.438;6.978;2023-03-21T04:57:12;14.47;;;6.47;;
2338;SDS011;1180;51.438;6.978;2023-03-21T04:59:37;9.93;;;5.67;;
2338;SDS011;1180;51.438;6.978;2023-03-21T05:02:03;13.47;;;5.87;;
2338;SDS011;1180;51.438;6.978;2023-03-21T05:04:28;13.30;;;5.97;;
2338;SDS011;1180;51.438;6.978;2023-03-21T05:06:54;12.63;;;5.67;;
2338;SDS011;1180;51.438;6.978;2023-03-21T05:09:20;9.30;;;6.40;;
2338;SDS011;1180;51.438;6.978;2023-03-21T05:11:46;10.30;;;5.97;;
2338;SDS011;1180;51.438;6.978;2023-03-21T05:14:16;9.90;;;5.57;;
2338;SDS011;1180;51.438;6.978;2023-03-21T05:16:44;8.77;;;5.97;;
2338;SDS011;1180;51.438;6.978;2023-03-21T05:19:17;9.80;;;6.43;;
2338;SDS011;1180;51.438;6.978;2023-03-21T05:21:45;13.20;;;6.80;;
2338;SDS011;1180;51.438;6.978;2023-03-21T05:24:15;10.73;;;5.83;;
2338;SDS011;1180;51.438;6.978;2023-03-21T05:26:42;7.20;;;5.73;;
2338;SDS011;1180;51.438;6.978;2023-03-21T05:29:09;9.40;;;5.57;;
2338;SDS011;1180;51.438;6.978;2023-03-21T05:31:35;13.87;;;7.97;;
2338;SDS011;1180;51.438;6.978;2023-03-21T05:34:01;7.20;;;6.00;;
2338;SDS011;1180;51.438;6.978;2023-03-21T05:36:27;10.43;;;5.80;;
2338;SDS011;1180;51.438;6.978;2023-03-21T05:38:52;10.70;;;5.83;;
2338;SDS011;1180;51.438;6.978;2023-03-21T05:41:18;9.07;;;5.97;;
2338;SDS011;1180;51.438;6.978;2023-03-21T05:43:45;12.77;;;7.10;;
2338;SDS011;1180;51.438;6.978;2023-03-21T05:46:11;13.80;;;7.17;;
2338;SDS011;1180;51.438;6.978;2023-03-21T05:48:36;10.23;;;6.43;;
2338;SDS011;1180;51.438;6.978;2023-03-21T05:51:02;11.80;;;5.70;;
2338;SDS011;1180;51.438;6.978;2023-03-21T05:53:28;12.20;;;6.73;;
2338;SDS011;1180;51.438;6.978;2023-03-21T05:55:54;10.17;;;6.63;;
2338;SDS011;1180;51.438;6.978;2023-03-21T05:58:20;9.60;;;6.30;;
2338;SDS011;1180;51.438;6.978;2023-03-21T06:00:45;9.27;;;5.80;;
2338;SDS011;1180;51.438;6.978;2023-03-21T06:03:10;10.80;;;6.30;;
2338;SDS011;1180;51.438;6.978;2023-03-21T06:05:36;11.10;;;7.10;;
2338;SDS011;1180;51.438;6.978;2023-03-21T06:08:01;8.63;;;5.93;;
2338;SDS011;1180;51.438;6.978;2023-03-21T06:10:27;9.50;;;6.13;;
2338;SDS011;1180;51.438;6.978;2023-03-21T06:12:52;7.63;;;6.70;;
2338;SDS011;1180;51.438;6.978;2023-03-21T06:15:18;10.57;;;5.97;;
2338;SDS011;1180;51.438;6.978;2023-03-21T06:17:43;10.33;;;6.23;;
2338;SDS011;1180;51.438;6.978;2023-03-21T06:20:09;13.40;;;7.77;;
2338;SDS011;1180;51.438;6.978;2023-03-21T06:22:35;9.60;;;6.40;;
2338;SDS011;1180;51.438;6.978;2023-03-21T06:25:01;15.60;;;5.90;;
2338;SDS011;1180;51.438;6.978;2023-03-21T06:27:27;10.60;;;5.30;;
2338;SDS011;1180;51.438;6.978;2023-03-21T06:29:52;6.50;;;4.90;;
2338;SDS011;1180;51.438;6.978;2023-03-21T06:32:17;10.70;;;5.00;;
2338;SDS011;1180;51.438;6.978;2023-03-21T06:34:43;9.37;;;5.37;;
2338;SDS011;1180;51.438;6.978;2023-03-21T06:37:09;10.97;;;5.80;;
2338;SDS011;1180;51.438;6.978;2023-03-21T06:39:34;7.10;;;5.10;;
2338;SDS011;1180;51.438;6.978;2023-03-21T06:42:00;11.90;;;6.30;;
2338;SDS011;1180;51.438;6.978;2023-03-21T06:44:26;7.20;;;5.40;;
2338;SDS011;1180;51.438;6.978;2023-03-21T06:46:51;10.67;;;5.80;;
2338;SDS011;1180;51.438;6.978;2023-03-21T06:49:17;10.50;;;5.17;;
2338;SDS011;1180;51.438;6.978;2023-03-21T06:51:43;12.17;;;4.93;;
2338;SDS011;1180;51.438;6.978;2023-03-21T06:54:09;10.57;;;5.90;;
2338;SDS011;1180;51.438;6.978;2023-03-21T06:56:34;8.93;;;5.27;;
2338;SDS011;1180;51.438;6.978;2023-03-21T06:58:59;9.63;;;5.23;;
2338;SDS011;1180;51.438;6.978;2023-03-21T07:01:26;8.00;;;5.00;;
2338;SDS011;1180;51.438;6.978;2023-03-21T07:03:52;9.90;;;5.33;;
2338;SDS011;1180;51.438;6.978;2023-03-21T07:06:18;8.40;;;5.10;;
2338;SDS011;1180;51.438;6.978;2023-03-21T07:08:43;11.20;;;5.50;;
2338;SDS011;1180;51.438;6.978;2023-03-21T07:11:12;9.40;;;4.93;;
2338;SDS011;1180;51.438;6.978;2023-03-21T07:13:37;8.90;;;5.57;;
2338;SDS011;1180;51.438;6.978;2023-03-21T07:16:03;8.50;;;5.30;;
2338;SDS011;1180;51.438;6.978;2023-03-21T07:18:29;8.37;;;5.43;;
2338;SDS011;1180;51.438;6.978;2023-03-21T07:20:55;10.00;;;5.50;;
2338;SDS011;1180;51.438;6.978;2023-03-21T07:23:21;10.37;;;5.30;;
2338;SDS011;1180;51.438;6.978;2023-03-21T07:25:48;10.73;;;6.50;;
2338;SDS011;1180;51.438;6.978;2023-03-21T07:28:14;9.80;;;6.23;;
2338;SDS011;1180;51.438;6.978;2023-03-21T07:30:41;9.33;;;5.00;;
2338;SDS011;1180;51.438;6.978;2023-03-21T07:33:07;14.17;;;6.43;;
2338;SDS011;1180;51.438;6.978;2023-03-21T07:35:32;11.17;;;6.20;;
2338;SDS011;1180;51.438;6.978;2023-03-21T07:38:00;8.37;;;5.70;;
2338;SDS011;1180;51.438;6.978;2023-03-21T07:40:25;11.40;;;6.17;;
2338;SDS011;1180;51.438;6.978;2023-03-21T07:42:51;10.03;;;5.00;;
2338;SDS011;1180;51.438;6.978;2023-03-21T07:45:16;12.73;;;6.30;;
2338;SDS011;1180;51.438;6.978;2023-03-21T07:47:46;7.77;;;5.67;;
2338;SDS011;1180;51.438;6.978;2023-03-21T07:50:12;9.17;;;5.80;;
2338;SDS011;1180;51.438;6.978;2023-03-21T07:52:38;11.77;;;6.00;;
2338;SDS011;1180;51.438;6.978;2023-03-21T07:55:03;9.80;;;5.90;;
2338;SDS011;1180;51.438;6.978;2023-03-21T07:57:29;9.73;;;5.07;;
2338;SDS011;1180;51.438;6.978;2023-03-21T07:59:55;7.73;;;5.17;;
2338;SDS011;1180;51.438;6.978;2023-03-21T08:02:20;14.40;;;6.40;;
2338;SDS011;1180;51.438;6.978;2023-03-21T08:04:46;9.43;;;5.20;;
2338;SDS011;1180;51.438;6.978;2023-03-21T08:10:49;5.63;;;4.77;;
2338;SDS011;1180;51.438;6.978;2023-03-21T08:13:14;6.43;;;5.13;;
2338;SDS011;1180;51.438;6.978;2023-03-21T08:15:39;8.60;;;5.10;;
2338;SDS011;1180;51.438;6.978;2023-03-21T08:18:06;6.37;;;4.77;;
2338;SDS011;1180;51.438;6.978;2023-03-21T08:20:32;9.67;;;5.13;;
2338;SDS011;1180;51.438;6.978;2023-03-21T08:22:57;9.00;;;5.23;;
2338;SDS011;1180;51.438;6.978;2023-03-21T08:25:23;7.67;;;5.40;;
2338;SDS011;1180;51.438;6.978;2023-03-21T08:27:48;10.20;;;5.80;;
2338;SDS011;1180;51.438;6.978;2023-03-21T08:30:15;13.40;;;5.43;;
2338;SDS011;1180;51.438;6.978;2023-03-21T08:32:43;9.10;;;5.60;;
2338;SDS011;1180;51.438;6.978;2023-03-21T08:35:09;9.13;;;6.00;;
2338;SDS011;1180;51.438;6.978;2023-03-21T08:37:40;9.80;;;5.80;;
2338;SDS011;1180;51.438;6.978;2023-03-21T08:40:07;12.07;;;6.83;;
2338;SDS011;1180;51.438;6.978;2023-03-21T08:42:38;8.30;;;5.30;;
2338;SDS011;1180;51.438;6.978;2023-03-21T08:45:04;10.97;;;7.30;;
2338;SDS011;1180;51.438;6.978;2023-03-21T08:47:31;13.00;;;5.90;;
2338;SDS011;1180;51.438;6.978;2023-03-21T08:49:56;8.83;;;6.23;;
2338;SDS011;1180;51.438;6.978;2023-03-21T08:52:22;6.97;;;4.70;;
2338;SDS011;1180;51.438;6.978;2023-03-21T08:54:48;8.63;;;5.03;;
2338;SDS011;1180;51.438;6.978;2023-03-21T08:57:13;11.43;;;5.93;;
2338;SDS011;1180;51.438;6.978;2023-03-21T08:59:39;18.33;;;6.33;;
2338;SDS011;1180;51.438;6.978;2023-03-21T09:02:04;7.80;;;5.87;;
2338;SDS011;1180;51.438;6.978;2023-03-21T09:04:30;6.10;;;5.33;;
2338;SDS011;1180;51.438;6.978;2023-03-21T09:06:56;13.33;;;6.53;;
2338;SDS011;1180;51.438;6.978;2023-03-21T09:09:25;12.90;;;7.10;;
2338;SDS011;1180;51.438;6.978;2023-03-21T09:11:51;11.23;;;7.20;;
2338;SDS011;1180;51.438;6.978;2023-03-21T09:14:17;11.57;;;6.63;;
2338;SDS011;1180;51.438;6.978;2023-03-21T09:16:42;12.70;;;7.33;;
2338;SDS011;1180;51.438;6.978;2023-03-21T09:19:07;8.30;;;6.67;;
2338;SDS011;1180;51.438;6.978;2023-03-21T09:21:33;7.63;;;6.43;;
2338;SDS011;1180;51.438;6.978;2023-03-21T09:23:59;8.47;;;6.00;;
2338;SDS011;1180;51.438;6.978;2023-03-21T09:26:26;6.97;;;5.73;;
2338;SDS011;1180;51.438;6.978;2023-03-21T09:28:53;10.10;;;6.33;;
2338;SDS011;1180;51.438;6.978;2023-03-21T09:31:19;7.03;;;6.03;;
2338;SDS011;1180;51.438;6.978;2023-03-21T09:33:49;11.87;;;7.03;;
2338;SDS011;1180;51.438;6.978;2023-03-21T09:36:15;12.50;;;6.47;;
2338;SDS011;1180;51.438;6.978;2023-03-21T09:38:43;11.37;;;6.10;;
2338;SDS011;1180;51.438;6.978;2023-03-21T09:49:25;9.27;;;5.83;;
2338;SDS011;1180;51.438;6.978;2023-03-21T09:52:00;7.53;;;5.70;;
2338;SDS011;1180;51.438;6.978;2023-03-21T09:54:40;10.50;;;6.70;;
2338;SDS011;1180;51.438;6.978;2023-03-21T09:57:28;10.70;;;6.70;;
2338;SDS011;1180;51.438;6.978;2023-03-21T09:59:59;12.27;;;6.63;;
2338;SDS011;1180;51.438;6.978;2023-03-21T10:02:42;8.70;;;6.27;;
2338;SDS011;1180;51.438;6.978;2023-03-21T10:05:17;11.17;;;7.40;;
2338;SDS011;1180;51.438;6.978;2023-03-21T10:07:53;13.03;;;8.07;;
2338;SDS011;1180;51.438;6.978;2023-03-21T10:10:29;10.40;;;5.80;;
2338;SDS011;1180;51.438;6.978;2023-03-21T10:13:00;16.63;;;6.50;;
2338;SDS011;1180;51.438;6.978;2023-03-21T10:15:25;11.33;;;5.97;;
2338;SDS011;1180;51.438;6.978;2023-03-21T10:17:56;7.63;;;5.07;;
2338;SDS011;1180;51.438;6.978;2023-03-21T10:20:27;6.30;;;4.87;;
2338;SDS011;1180;51.438;6.978;2023-03-21T10:22:58;9.40;;;4.70;;
2338;SDS011;1180;51.438;6.978;2023-03-21T10:25:30;10.60;;;5.30;;
2338;SDS011;1180;51.438;6.978;2023-03-21T10:28:00;9.33;;;4.50;;
2338;SDS011;1180;51.438;6.978;2023-03-21T10:30:47;7.70;;;5.40;;
2338;SDS011;1180;51.438;6.978;2023-03-21T10:33:28;7.03;;;4.37;;
2338;SDS011;1180;51.438;6.978;2023-03-21T10:35:58;7.80;;;5.00;;
2338;SDS011;1180;51.438;6.978;2023-03-21T10:38:29;10.33;;;5.30;;
2338;SDS011;1180;51.438;6.978;2023-03-21T10:40:55;6.97;;;5.00;;
2338;SDS011;1180;51.438;6.978;2023-03-21T10:45:52;6.60;;;4.90;;
2338;SDS011;1180;51.438;6.978;2023-03-21T10:48:19;7.23;;;5.10;;
2338;SDS011;1180;51.438;6.978;2023-03-21T10:50:46;9.87;;;5.53;;
2338;SDS011;1180;51.438;6.978;2023-03-21T10:53:17;6.27;;;4.83;;
2338;SDS011;1180;51.438;6.978;2023-03-21T10:55:53;7.83;;;4.87;;
2338;SDS011;1180;51.438;6.978;2023-03-21T10:58:24;6.53;;;4.93;;
2338;SDS011;1180;51.438;6.978;2023-03-21T11:00:53;10.23;;;5.53;;
2338;SDS011;1180;51.438;6.978;2023-03-21T11:03:32;5.57;;;4.73;;
2338;SDS011;1180;51.438;6.978;2023-03-21T11:06:02;7.23;;;5.33;;
2338;SDS011;1180;51.438;6.978;2023-03-21T11:08:36;11.70;;;5.60;;
2338;SDS011;1180;51.438;6.978;2023-03-21T11:11:05;9.30;;;5.30;;
2338;SDS011;1180;51.438;6.978;2023-03-21T11:13:33;9.40;;;5.10;;
2338;SDS011;1180;51.438;6.978;2023-03-21T11:18:39;9.73;;;4.73;;
2338;SDS011;1180;51.438;6.978;2023-03-21T11:21:08;7.40;;;5.10;;
2338;SDS011;1180;51.438;6.978;2023-03-21T11:23:37;8.40;;;5.07;;
2338;SDS011;1180;51.438;6.978;2023-03-21T11:26:08;8.30;;;5.70;;
2338;SDS011;1180;51.438;6.978;2023-03-21T11:28:36;8.93;;;5.20;;
2338;SDS011;1180;51.438;6.978;2023-03-21T11:31:04;11.60;;;6.07;;
2338;SDS011;1180;51.438;6.978;2023-03-21T11:33:32;7.50;;;4.67;;
2338;SDS011;1180;51.438;6.978;2023-03-21T11:38:32;9.50;;;4.20;;
2338;SDS011;1180;51.438;6.978;2023-03-21T11:41:01;6.60;;;4.17;;
2338;SDS011;1180;51.438;6.978;2023-03-21T11:43:29;7.83;;;5.17;;
2338;SDS011;1180;51.438;6.978;2023-03-21T11:48:38;7.90;;;4.80;;
2338;SDS011;1180;51.438;6.978;2023-03-21T11:51:09;6.27;;;4.00;;
2338;SDS011;1180;51.438;6.978;2023-03-21T11:56:35;5.43;;;4.20;;
2338;SDS011;1180;51.438;6.978;2023-03-21T11:59:11;10.23;;;4.90;;
2338;SDS011;1180;51.438;6.978;2023-03-21T12:02:10;11.00;;;4.10;;
2338;SDS011;1180;51.438;6.978;2023-03-21T12:05:04;6.03;;;3.80;;
2338;SDS011;1180;51.438;6.978;2023-03-21T12:12:45;6.53;;;4.23;;
2338;SDS011;1180;51.438;6.978;2023-03-21T12:26:26;5.37;;;3.70;;
2338;SDS011;1180;51.438;6.978;2023-03-21T12:43:23;5.80;;;4.57;;
2338;SDS011;1180;51.438;6.978;2023-03-21T12:45:54;6.97;;;4.23;;
2338;SDS011;1180;51.438;6.978;2023-03-21T12:51:28;6.77;;;3.57;;
2338;SDS011;1180;51.438;6.978;2023-03-21T12:53:59;6.27;;;3.80;;
2338;SDS011;1180;51.438;6.978;2023-03-21T12:59:55;7.00;;;4.23;;
2338;SDS011;1180;51.438;6.978;2023-03-21T13:02:33;7.87;;;3.83;;
2338;SDS011;1180;51.438;6.978;2023-03-21T13:07:40;5.07;;;3.40;;
2338;SDS011;1180;51.438;6.978;2023-03-21T13:10:16;6.67;;;3.30;;
2338;SDS011;1180;51.438;6.978;2023-03-21T13:15:54;8.63;;;4.83;;
2338;SDS011;1180;51.438;6.978;2023-03-21T13:18:54;7.17;;;3.77;;
2338;SDS011;1180;51.438;6.978;2023-03-21T13:24:02;4.73;;;3.03;;
2338;SDS011;1180;51.438;6.978;2023-03-21T13:26:49;5.07;;;3.50;;
2338;SDS011;1180;51.438;6.978;2023-03-21T13:29:24;7.50;;;4.30;;
2338;SDS011;1180;51.438;6.978;2023-03-21T13:31:53;4.03;;;3.47;;
2338;SDS011;1180;51.438;6.978;2023-03-21T13:34:21;5.80;;;3.77;;
2338;SDS011;1180;51.438;6.978;2023-03-21T13:36:48;6.53;;;4.03;;
2338;SDS011;1180;51.438;6.978;2023-03-21T13:39:19;5.90;;;3.70;;
2338;SDS011;1180;51.438;6.978;2023-03-21T13:41:50;7.87;;;3.87;;
2338;SDS011;1180;51.438;6.978;2023-03-21T13:46:53;3.37;;;3.07;;
2338;SDS011;1180;51.438;6.978;2023-03-21T13:49:31;5.13;;;3.37;;
2338;SDS011;1180;51.438;6.978;2023-03-21T13:52:46;4.57;;;3.40;;
2338;SDS011;1180;51.438;6.978;2023-03-21T13:54:53;4.50;;;3.10;;
2338;SDS011;1180;51.438;6.978;2023-03-21T14:00:12;6.30;;;4.30;;
2338;SDS011;1180;51.438;6.978;2023-03-21T14:05:31;5.27;;;4.10;;
2338;SDS011;1180;51.438;6.978;2023-03-21T14:08:08;6.03;;;3.37;;
2338;SDS011;1180;51.438;6.978;2023-03-21T14:10:41;3.63;;;3.33;;
2338;SDS011;1180;51.438;6.978;2023-03-21T14:13:10;3.60;;;2.97;;
2338;SDS011;1180;51.438;6.978;2023-03-21T14:15:44;4.03;;;3.27;;
2338;SDS011;1180;51.438;6.978;2023-03-21T14:18:15;5.40;;;3.83;;
2338;SDS011;1180;51.438;6.978;2023-03-21T14:20:43;4.03;;;3.13;;
2338;SDS011;1180;51.438;6.978;2023-03-21T14:23:15;5.63;;;3.40;;
2338;SDS011;1180;51.438;6.978;2023-03-21T14:25:41;3.77;;;2.73;;
2338;SDS011;1180;51.438;6.978;2023-03-21T14:28:14;3.53;;;3.23;;
2338;SDS011;1180;51.438;6.978;2023-03-21T14:30:42;5.00;;;3.57;;
2338;SDS011;1180;51.438;6.978;2023-03-21T14:36:30;6.57;;;3.33;;
2338;SDS011;1180;51.438;6.978;2023-03-21T14:42:03;4.00;;;3.03;;
2338;SDS011;1180;51.438;6.978;2023-03-21T14:44:33;4.53;;;3.50;;
2338;SDS011;1180;51.438;6.978;2023-03-21T14:47:07;5.13;;;2.93;;
2338;SDS011;1180;51.438;6.978;2023-03-21T14:49:41;4.97;;;3.53;;
2338;SDS011;1180;51.438;6.978;2023-03-21T14:52:10;6.53;;;3.60;;
2338;SDS011;1180;51.438;6.978;2023-03-21T14:54:56;4.13;;;2.70;;
2338;SDS011;1180;51.438;6.978;2023-03-21T14:57:25;4.03;;;2.70;;
2338;SDS011;1180;51.438;6.978;2023-03-21T14:59:54;5.10;;;3.17;;
2338;SDS011;1180;51.438;6.978;2023-03-21T15:02:27;5.27;;;3.30;;
2338;SDS011;1180;51.438;6.978;2023-03-21T15:04:57;4.60;;;3.00;;
2338;SDS011;1180;51.438;6.978;2023-03-21T15:07:31;4.53;;;3.07;;
2338;SDS011;1180;51.438;6.978;2023-03-21T15:10:02;3.70;;;3.03;;
2338;SDS011;1180;51.438;6.978;2023-03-21T15:12:30;3.63;;;3.33;;
2338;SDS011;1180;51.438;6.978;2023-03-21T15:14:57;5.00;;;3.30;;
2338;SDS011;1180;51.438;6.978;2023-03-21T15:17:23;5.30;;;3.70;;
2338;SDS011;1180;51.438;6.978;2023-03-21T15:19:49;3.17;;;2.87;;
2338;SDS011;1180;51.438;6.978;2023-03-21T15:22:18;6.17;;;3.17;;
2338;SDS011;1180;51.438;6.978;2023-03-21T15:24:47;4.93;;;3.40;;
2338;SDS011;1180;51.438;6.978;2023-03-21T15:27:17;6.50;;;2.93;;
2338;SDS011;1180;51.438;6.978;2023-03-21T15:29:44;8.20;;;3.80;;
2338;SDS011;1180;51.438;6.978;2023-03-21T15:32:15;4.90;;;3.33;;
2338;SDS011;1180;51.438;6.978;2023-03-21T15:34:43;4.70;;;3.33;;
2338;SDS011;1180;51.438;6.978;2023-03-21T15:37:17;4.27;;;3.07;;
2338;SDS011;1180;51.438;6.978;2023-03-21T15:39:47;5.30;;;3.90;;
2338;SDS011;1180;51.438;6.978;2023-03-21T15:45:01;3.10;;;2.67;;
2338;SDS011;1180;51.438;6.978;2023-03-21T15:48:20;5.20;;;2.97;;
2338;SDS011;1180;51.438;6.978;2023-03-21T15:51:00;3.87;;;3.27;;
2338;SDS011;1180;51.438;6.978;2023-03-21T15:53:22;3.93;;;2.90;;
2338;SDS011;1180;51.438;6.978;2023-03-21T15:55:49;4.77;;;2.80;;
2338;SDS011;1180;51.438;6.978;2023-03-21T15:58:19;6.77;;;3.43;;
2338;SDS011;1180;51.438;6.978;2023-03-21T16:00:54;3.23;;;2.93;;
2338;SDS011;1180;51.438;6.978;2023-03-21T16:03:26;3.63;;;2.87;;
2338;SDS011;1180;51.438;6.978;2023-03-21T16:06:05;8.53;;;2.93;;
2338;SDS011;1180;51.438;6.978;2023-03-21T16:08:35;5.03;;;3.10;;
2338;SDS011;1180;51.438;6.978;2023-03-21T16:11:12;3.77;;;2.70;;
2338;SDS011;1180;51.438;6.978;2023-03-21T16:13:43;4.43;;;3.03;;
2338;SDS011;1180;51.438;6.978;2023-03-21T16:16:22;3.80;;;3.33;;
2338;SDS011;1180;51.438;6.978;2023-03-21T16:18:47;5.00;;;3.27;;
2338;SDS011;1180;51.438;6.978;2023-03-21T16:21:14;3.47;;;3.17;;
2338;SDS011;1180;51.438;6.978;2023-03-21T16:23:42;4.77;;;2.97;;
2338;SDS011;1180;51.438;6.978;2023-03-21T16:26:42;4.00;;;3.20;;
2338;SDS011;1180;51.438;6.978;2023-03-21T16:29:04;5.30;;;3.00;;
2338;SDS011;1180;51.438;6.978;2023-03-21T16:31:32;5.40;;;3.00;;
2338;SDS011;1180;51.438;6.978;2023-03-21T16:33:59;4.67;;;2.93;;
2338;SDS011;1180;51.438;6.978;2023-03-21T16:36:27;5.33;;;3.30;;
2338;SDS011;1180;51.438;6.978;2023-03-21T16:38:54;4.17;;;2.97;;
2338;SDS011;1180;51.438;6.978;2023-03-21T16:41:21;3.53;;;3.23;;
2338;SDS011;1180;51.438;6.978;2023-03-21T16:43:48;4.90;;;3.00;;
2338;SDS011;1180;51.438;6.978;2023-03-21T16:46:18;5.97;;;3.33;;
2338;SDS011;1180;51.438;6.978;2023-03-21T16:48:46;3.30;;;2.77;;
2338;SDS011;1180;51.438;6.978;2023-03-21T16:51:18;3.50;;;3.13;;
2338;SDS011;1180;51.438;6.978;2023-03-21T16:53:46;3.37;;;2.77;;
2338;SDS011;1180;51.438;6.978;2023-03-21T16:56:17;4.10;;;3.60;;
2338;SDS011;1180;51.438;6.978;2023-03-21T16:58:45;4.13;;;3.57;;
2338;SDS011;1180;51.438;6.978;2023-03-21T17:01:13;4.03;;;2.90;;
2338;SDS011;1180;51.438;6.978;2023-03-21T17:03:43;5.90;;;3.60;;
2338;SDS011;1180;51.438;6.978;2023-03-21T17:06:13;6.60;;;4.50;;
2338;SDS011;1180;51.438;6.978;2023-03-21T17:08:39;7.80;;;3.03;;
2338;SDS011;1180;51.438;6.978;2023-03-21T17:11:07;3.97;;;3.03;;
2338;SDS011;1180;51.438;6.978;2023-03-21T17:13:34;3.23;;;2.93;;
2338;SDS011;1180;51.438;6.978;2023-03-21T17:15:59;3.80;;;3.40;;
2338;SDS011;1180;51.438;6.978;2023-03-21T17:18:25;3.33;;;3.00;;